createdAt,value
2019-05-15T00:00:42.209Z,65.80
2019-05-15T00:03:08.777Z,66.10
2019-05-15T00:05:35.269Z,66.70
2019-05-15T00:08:01.936Z,66.10
2019-05-15T00:10:28.770Z,66.20
2019-05-15T00:12:57.965Z,66.10
2019-05-15T00:15:24.212Z,65.70
2019-05-15T00:17:50.780Z,65.20
2019-05-15T00:20:20.053Z,65.70
2019-05-15T00:22:45.703Z,66.30
2019-05-15T00:25:12.508Z,65.60
2019-05-15T00:27:39.070Z,65.60
2019-05-15T00:30:08.659Z,65.90
2019-05-15T00:32:35.491Z,66.60
2019-05-15T00:35:04.871Z,67.40
2019-05-15T00:37:31.229Z,67.60
2019-05-15T00:39:59.199Z,66.50
2019-05-15T00:42:25.731Z,65.50
2019-05-15T00:44:52.409Z,64.70
2019-05-15T00:47:19.024Z,64.80
2019-05-15T00:49:45.647Z,64.20
2019-05-15T00:52:12.450Z,63.70
2019-05-15T00:54:38.958Z,62.80
2019-05-15T00:57:05.617Z,64.20
2019-05-15T00:59:32.202Z,65.80
2019-05-15T01:01:59.430Z,65.90
2019-05-15T01:04:27.966Z,65.60
2019-05-15T01:06:54.235Z,66.50
2019-05-15T01:09:20.845Z,67.60
2019-05-15T01:11:48.829Z,68.00
2019-05-15T01:14:15.341Z,67.30
2019-05-15T01:16:41.957Z,66.50
2019-05-15T01:19:09.187Z,65.70
2019-05-15T01:21:35.572Z,65.10
2019-05-15T01:24:02.071Z,64.60
2019-05-15T01:26:28.628Z,64.30
2019-05-15T01:28:55.150Z,63.90
2019-05-15T01:31:21.828Z,64.00
2019-05-15T01:33:48.433Z,63.80
2019-05-15T01:36:15.199Z,64.20
2019-05-15T01:38:41.699Z,64.00
2019-05-15T01:41:09.669Z,64.90
2019-05-15T01:43:38.114Z,66.40
2019-05-15T01:46:04.481Z,68.70
2019-05-15T01:48:31.144Z,69.90
2019-05-15T01:50:58.546Z,70.80
2019-05-15T01:53:25.252Z,71.50
2019-05-15T01:55:51.890Z,71.80
2019-05-15T01:58:18.947Z,72.30
2019-05-15T02:00:45.668Z,72.50
2019-05-15T02:03:12.193Z,71.70
2019-05-15T02:05:39.112Z,71.90
2019-05-15T02:08:08.031Z,72.10
2019-05-15T02:10:34.040Z,72.20
2019-05-15T02:13:00.385Z,72.00
2019-05-15T02:15:28.543Z,71.30
2019-05-15T02:17:55.907Z,71.10
2019-05-15T02:20:22.372Z,70.80
2019-05-15T02:22:48.981Z,69.50
2019-05-15T02:25:15.724Z,69.40
2019-05-15T02:27:42.287Z,69.50
2019-05-15T02:30:22.109Z,70.80
2019-05-15T02:32:39.441Z,71.90
2019-05-15T02:35:09.528Z,72.80
2019-05-15T02:37:34.541Z,73.40
2019-05-15T02:40:01.501Z,71.90
2019-05-15T02:42:28.985Z,71.90
2019-05-15T02:44:58.518Z,72.20
2019-05-15T02:47:24.384Z,71.30
2019-05-15T02:49:51.053Z,73.20
2019-05-15T02:52:19.918Z,73.20
2019-05-15T02:54:49.517Z,72.30
2019-05-15T02:57:14.208Z,71.90
2019-05-15T02:59:40.844Z,72.20
2019-05-15T03:02:09.869Z,72.00
2019-05-15T03:04:35.377Z,72.90
2019-05-15T03:07:02.269Z,74.70
2019-05-15T03:09:29.834Z,74.50
2019-05-15T03:11:58.709Z,74.50
2019-05-15T03:14:25.187Z,74.00
2019-05-15T03:16:51.973Z,74.70
2019-05-15T03:19:19.229Z,75.60
2019-05-15T03:21:49.392Z,75.90
2019-05-15T03:24:14.106Z,76.20
2019-05-15T03:26:40.460Z,75.70
2019-05-15T03:29:09.876Z,75.30
2019-05-15T03:31:57.605Z,75.40
2019-05-15T03:34:04.273Z,73.90
2019-05-15T03:36:32.009Z,73.10
2019-05-15T03:38:59.104Z,73.80
2019-05-15T03:41:25.314Z,72.90
2019-05-15T03:43:52.039Z,73.80
2019-05-15T03:46:20.033Z,73.60
2019-05-15T03:48:48.700Z,73.10
2019-05-15T03:51:15.205Z,72.30
2019-05-15T03:53:41.644Z,73.00
2019-05-15T03:56:09.790Z,73.90
2019-05-15T03:58:39.709Z,74.10
2019-05-15T04:01:25.487Z,73.40
2019-05-15T04:03:33.544Z,73.20
2019-05-15T04:06:00.642Z,74.30
2019-05-15T04:08:29.873Z,73.40
2019-05-15T04:10:55.245Z,73.60
2019-05-15T04:13:21.746Z,72.70
2019-05-15T04:15:50.198Z,73.60
2019-05-15T04:18:19.876Z,73.60
2019-05-15T04:20:45.771Z,74.90
2019-05-15T04:23:18.927Z,75.00
2019-05-15T04:25:49.423Z,75.00
2019-05-15T04:28:19.352Z,74.20
2019-05-15T04:30:46.024Z,73.30
2019-05-15T04:33:12.429Z,73.20
2019-05-15T04:35:39.929Z,72.50
2019-05-15T04:38:09.394Z,73.30
2019-05-15T04:40:35.256Z,73.50
2019-05-15T04:43:01.580Z,73.50
2019-05-15T04:45:34.422Z,71.90
2019-05-15T04:47:58.772Z,70.70
2019-05-15T04:50:24.673Z,70.10
2019-05-15T04:52:51.326Z,70.80
2019-05-15T04:55:19.717Z,70.70
2019-05-15T04:57:46.257Z,71.20
2019-05-15T05:00:13.092Z,71.00
2019-05-15T05:02:40.537Z,70.80
2019-05-15T05:05:10.083Z,71.20
2019-05-15T05:07:39.015Z,71.30
2019-05-15T05:10:09.163Z,71.80
2019-05-15T05:12:34.254Z,71.00
2019-05-15T05:15:00.897Z,70.50
2019-05-15T05:17:28.857Z,70.60
2019-05-15T05:19:55.425Z,70.40
2019-05-15T05:22:22.006Z,69.70
2019-05-15T05:24:48.288Z,68.80
2019-05-15T05:27:14.532Z,69.70
2019-05-15T05:29:41.133Z,69.40
2019-05-15T05:32:09.189Z,68.40
2019-05-15T05:34:35.664Z,69.00
2019-05-15T05:37:01.908Z,68.70
2019-05-15T05:39:29.439Z,67.90
2019-05-15T05:41:56.121Z,67.50
2019-05-15T05:44:23.391Z,67.50
2019-05-15T05:46:49.689Z,68.40
2019-05-15T05:49:18.390Z,67.90
2019-05-15T05:51:44.589Z,67.40
2019-05-15T05:54:11.164Z,67.50
2019-05-15T05:56:38.815Z,68.20
2019-05-15T05:59:06.122Z,68.50
2019-05-15T06:01:35.963Z,68.00
2019-05-15T06:04:01.035Z,65.30
2019-05-15T06:06:29.236Z,60.30
2019-05-15T06:08:58.287Z,55.00
2019-05-15T06:11:24.193Z,51.70
2019-05-15T06:13:52.545Z,50.50
2019-05-15T06:16:19.213Z,50.20
2019-05-15T06:18:45.743Z,51.60
2019-05-15T06:21:12.425Z,51.20
2019-05-15T06:23:45.317Z,47.40
2019-05-15T06:26:09.599Z,46.40
2019-05-15T06:28:35.138Z,45.40
2019-05-15T06:31:01.478Z,43.20
2019-05-15T06:33:49.383Z,43.20
2019-05-15T06:36:17.869Z,41.00
2019-05-15T06:38:43.705Z,38.70
2019-05-15T06:41:10.087Z,40.40
2019-05-15T06:43:38.661Z,39.20
2019-05-15T06:46:04.483Z,40.30
2019-05-15T06:48:30.715Z,39.00
2019-05-15T06:50:57.961Z,38.30
2019-05-15T06:53:24.515Z,37.30
2019-05-15T06:55:50.809Z,36.70
2019-05-15T06:58:19.059Z,37.90
2019-05-15T07:00:45.096Z,37.70
2019-05-15T07:03:21.511Z,36.10
2019-05-15T07:05:39.503Z,37.10
2019-05-15T07:08:05.801Z,35.70
2019-05-15T07:10:32.093Z,33.90
2019-05-15T07:12:58.573Z,32.50
2019-05-15T07:15:27.720Z,32.80
2019-05-15T07:17:53.331Z,31.90
2019-05-15T07:20:20.556Z,32.30
2019-05-15T07:22:49.106Z,34.30
2019-05-15T07:25:15.684Z,33.10
2019-05-15T07:27:41.911Z,31.50
2019-05-15T07:30:29.949Z,31.20
2019-05-15T07:32:58.336Z,30.40
2019-05-15T07:35:24.421Z,31.40
2019-05-15T07:37:50.992Z,32.50
2019-05-15T07:40:19.330Z,30.80
2019-05-15T07:42:48.797Z,30.00
2019-05-15T07:45:19.580Z,32.10
2019-05-15T07:47:44.542Z,31.10
2019-05-15T07:50:12.175Z,31.00
2019-05-15T07:52:39.577Z,31.90
2019-05-15T07:55:08.695Z,29.60
2019-05-15T07:57:35.227Z,27.70
2019-05-15T08:00:01.697Z,27.60
2019-05-15T08:02:28.465Z,28.30
2019-05-15T08:04:55.105Z,27.80
2019-05-15T08:07:21.379Z,27.30
2019-05-15T08:09:48.651Z,28.60
2019-05-15T08:12:15.447Z,31.90
2019-05-15T08:14:41.711Z,29.40
2019-05-15T08:17:08.669Z,27.20
2019-05-15T08:19:37.822Z,24.40
2019-05-15T08:22:03.594Z,22.70
2019-05-15T08:24:30.055Z,22.60
2019-05-15T08:26:58.145Z,22.60
2019-05-15T08:29:24.656Z,24.30
2019-05-15T08:31:52.217Z,24.80
2019-05-15T08:34:19.622Z,23.60
2019-05-15T08:36:48.302Z,22.70
2019-05-15T08:39:14.481Z,21.10
2019-05-15T08:41:40.812Z,21.90
2019-05-15T08:44:08.750Z,23.20
2019-05-15T08:46:35.711Z,23.30
2019-05-15T08:49:01.940Z,23.80
2019-05-15T08:51:28.518Z,23.30
2019-05-15T08:53:54.999Z,22.20
2019-05-15T08:56:21.261Z,20.80
2019-05-15T08:58:48.658Z,20.70
2019-05-15T09:01:15.492Z,21.80
2019-05-15T09:03:41.723Z,22.30
2019-05-15T09:06:09.108Z,23.00
2019-05-15T09:08:39.091Z,21.90
2019-05-15T09:11:05.244Z,23.70
2019-05-15T09:13:31.484Z,23.20
2019-05-15T09:15:58.887Z,22.70
2019-05-15T09:18:28.203Z,22.00
2019-05-15T09:20:53.959Z,22.50
2019-05-15T09:23:20.308Z,22.60
2019-05-15T09:25:49.375Z,22.60
2019-05-15T09:28:14.852Z,23.90
2019-05-15T09:30:53.644Z,25.60
2019-05-15T09:33:20.412Z,24.30
2019-05-15T09:35:49.018Z,24.50
2019-05-15T09:38:15.010Z,23.60
2019-05-15T09:40:46.270Z,23.10
2019-05-15T09:43:10.755Z,23.20
2019-05-15T09:45:38.175Z,23.60
2019-05-15T09:48:04.903Z,22.50
2019-05-15T09:50:31.130Z,22.50
2019-05-15T09:52:58.818Z,23.10
2019-05-15T09:55:25.357Z,23.20
2019-05-15T09:57:54.908Z,23.50
2019-05-15T10:00:29.255Z,22.70
2019-05-15T10:02:55.316Z,22.90
2019-05-15T10:05:21.743Z,21.90
2019-05-15T10:07:48.135Z,23.30
2019-05-15T10:10:14.583Z,22.80
2019-05-15T10:12:40.864Z,23.30
2019-05-15T10:15:11.439Z,22.50
2019-05-15T10:17:36.463Z,22.70
2019-05-15T10:20:08.952Z,21.90
2019-05-15T10:22:34.975Z,22.00
2019-05-15T10:25:01.316Z,23.00
2019-05-15T10:27:28.695Z,23.20
2019-05-15T10:29:55.115Z,22.30
2019-05-15T10:32:21.376Z,21.30
2019-05-15T10:34:47.738Z,21.80
2019-05-15T10:37:13.993Z,22.60
2019-05-15T10:39:40.237Z,22.20
2019-05-15T10:42:08.201Z,22.50
2019-05-15T10:44:35.865Z,25.30
2019-05-15T10:47:02.138Z,24.70
2019-05-15T10:49:28.402Z,25.00
2019-05-15T10:51:54.635Z,24.20
2019-05-15T10:54:21.045Z,23.80
2019-05-15T10:56:47.372Z,22.30
2019-05-15T10:59:13.603Z,22.90
2019-05-15T11:01:40.049Z,22.90
2019-05-15T11:04:08.902Z,24.30
2019-05-15T11:06:34.571Z,23.30
2019-05-15T11:09:00.839Z,23.40
2019-05-15T11:11:27.059Z,23.30
2019-05-15T11:13:53.524Z,23.70
2019-05-15T11:16:21.271Z,23.80
2019-05-15T11:18:48.192Z,22.90
2019-05-15T11:21:14.948Z,23.90
2019-05-15T11:23:42.519Z,23.90
2019-05-15T11:26:09.547Z,23.60
2019-05-15T11:28:38.749Z,23.50
2019-05-15T11:31:04.133Z,24.00
2019-05-15T11:33:30.401Z,23.60
2019-05-15T11:36:04.215Z,23.50
2019-05-15T11:38:24.719Z,23.10
2019-05-15T11:40:50.990Z,22.60
2019-05-15T11:43:19.743Z,22.10
2019-05-15T11:45:47.794Z,22.20
2019-05-15T11:48:13.496Z,24.20
2019-05-15T11:50:40.254Z,25.00
2019-05-15T11:53:08.698Z,24.60
2019-05-15T11:55:34.736Z,24.70
2019-05-15T11:58:00.967Z,23.20
2019-05-15T12:00:30.230Z,22.70
2019-05-15T12:02:58.233Z,22.50
2019-05-15T12:05:23.644Z,21.90
2019-05-15T12:07:49.895Z,23.80
2019-05-15T12:10:18.505Z,23.90
2019-05-15T12:12:44.540Z,24.20
2019-05-15T12:15:11.877Z,24.00
2019-05-15T12:17:39.029Z,23.20
2019-05-15T12:20:07.272Z,22.90
2019-05-15T12:22:34.606Z,22.60
2019-05-15T12:25:01.671Z,24.80
2019-05-15T12:27:28.395Z,25.40
2019-05-15T12:29:55.090Z,24.40
2019-05-15T12:32:31.245Z,24.20
2019-05-15T12:34:49.697Z,23.70
2019-05-15T12:37:16.307Z,24.30
2019-05-15T12:39:42.594Z,23.60
2019-05-15T12:59:40.987Z,23.00
2019-05-15T13:01:53.302Z,23.70
2019-05-15T13:04:19.994Z,23.10
2019-05-15T13:06:55.756Z,23.00
2019-05-15T13:09:14.897Z,23.70
2019-05-15T13:11:41.141Z,25.60
2019-05-15T13:14:08.121Z,24.00
2019-05-15T13:16:34.741Z,25.70
2019-05-15T13:19:00.976Z,26.90
2019-05-15T13:21:29.452Z,27.70
2019-05-15T13:23:55.286Z,28.80
2019-05-15T13:26:26.529Z,28.80
2019-05-15T13:28:49.837Z,29.30
2019-05-15T13:31:16.077Z,28.30
2019-05-15T13:33:42.322Z,28.30
2019-05-15T13:36:09.081Z,29.20
2019-05-15T13:38:38.016Z,28.00
2019-05-15T13:41:04.003Z,29.40
2019-05-15T13:43:30.265Z,29.20
2019-05-15T13:45:58.118Z,30.20
2019-05-15T13:48:24.344Z,28.10
2019-05-15T13:50:50.595Z,28.40
2019-05-15T13:53:18.427Z,28.20
2019-05-15T13:55:44.939Z,27.80
2019-05-15T13:58:11.172Z,27.80
2019-05-15T14:00:38.875Z,27.50
2019-05-15T14:03:05.830Z,27.70
2019-05-15T14:05:32.096Z,29.40
2019-05-15T14:07:58.440Z,28.20
2019-05-15T14:10:24.694Z,28.90
2019-05-15T14:12:50.927Z,28.10
2019-05-15T14:15:17.882Z,27.50
2019-05-15T14:17:44.165Z,27.80
2019-05-15T14:20:10.912Z,28.80
2019-05-15T14:22:38.992Z,27.40
2019-05-15T14:25:08.897Z,26.10
2019-05-15T14:27:34.712Z,27.00
2019-05-15T14:30:00.940Z,27.00
2019-05-15T14:32:38.399Z,27.00
2019-05-15T14:34:58.383Z,26.10
2019-05-15T14:37:24.279Z,26.60
2019-05-15T14:39:52.318Z,27.70
2019-05-15T14:42:18.770Z,26.50
2019-05-15T14:44:45.246Z,26.90
2019-05-15T14:47:11.521Z,26.40
2019-05-15T14:49:44.252Z,25.10
2019-05-15T14:52:09.266Z,23.90
2019-05-15T14:54:34.257Z,23.80
2019-05-15T14:57:00.520Z,24.60
2019-05-15T14:59:26.853Z,24.60
2019-05-15T15:01:53.273Z,23.10
2019-05-15T15:04:20.009Z,23.40
2019-05-15T15:06:48.530Z,23.30
2019-05-15T15:09:14.371Z,23.40
2019-05-15T15:11:40.628Z,23.60
2019-05-15T15:14:08.686Z,24.70
2019-05-15T15:16:34.917Z,23.00
2019-05-15T15:19:01.195Z,24.00
2019-05-15T15:21:29.307Z,22.80
2019-05-15T15:23:55.731Z,23.80
2019-05-15T15:26:21.995Z,22.20
2019-05-15T15:28:48.919Z,22.00
2019-05-15T15:31:15.570Z,23.00
2019-05-15T15:33:41.864Z,22.70
2019-05-15T15:36:08.812Z,22.80
2019-05-15T15:38:43.194Z,23.20
2019-05-15T15:41:04.615Z,22.30
2019-05-15T15:43:30.847Z,23.10
2019-05-15T15:45:58.083Z,23.00
2019-05-15T15:48:24.958Z,23.30
2019-05-15T15:50:51.238Z,22.80
2019-05-15T15:53:19.075Z,22.80
2019-05-15T15:55:45.488Z,22.50
2019-05-15T15:58:11.739Z,23.00
2019-05-15T16:00:38.523Z,22.90
2019-05-15T16:03:05.145Z,22.70
2019-05-15T16:05:31.376Z,23.50
2019-05-15T16:07:59.151Z,23.80
2019-05-15T16:10:25.523Z,23.50
2019-05-15T16:12:51.838Z,23.40
2019-05-15T16:15:18.273Z,24.10
2019-05-15T16:17:44.598Z,24.10
2019-05-15T16:20:11.682Z,23.60
2019-05-15T16:22:38.417Z,22.80
2019-05-15T16:25:28.716Z,23.40
2019-05-15T16:27:54.602Z,22.50
2019-05-15T16:30:20.962Z,22.80
2019-05-15T16:32:47.710Z,24.10
2019-05-15T16:35:14.426Z,23.60
2019-05-15T16:37:40.660Z,23.50
2019-05-15T16:40:07.688Z,23.60
2019-05-15T16:42:34.088Z,23.60
2019-05-15T16:45:00.288Z,22.90
2019-05-15T16:47:27.960Z,23.50
2019-05-15T16:49:54.487Z,23.30
2019-05-15T16:52:20.734Z,23.60
2019-05-15T16:54:48.989Z,24.00
2019-05-15T16:57:15.053Z,23.90
2019-05-15T16:59:41.480Z,25.20
2019-05-15T17:02:08.780Z,24.20
2019-05-15T17:04:38.067Z,24.50
2019-05-15T17:07:03.622Z,24.80
2019-05-15T17:09:30.605Z,25.20
2019-05-15T17:11:58.250Z,25.80
2019-05-15T17:14:24.665Z,25.90
2019-05-15T17:16:50.929Z,25.00
2019-05-15T17:19:18.028Z,25.60
2019-05-15T17:21:48.018Z,25.40
2019-05-15T17:24:14.666Z,25.70
2019-05-15T17:26:41.086Z,26.20
2019-05-15T17:29:08.911Z,26.10
2019-05-15T17:31:37.898Z,25.00
2019-05-15T17:34:04.284Z,25.90
2019-05-15T17:36:32.075Z,25.10
2019-05-15T17:38:59.052Z,26.70
2019-05-15T17:41:25.470Z,26.20
2019-05-15T17:43:51.691Z,26.30
2019-05-15T17:46:18.125Z,25.70
2019-05-15T17:48:44.415Z,26.10
2019-05-15T17:51:10.626Z,26.90
2019-05-15T17:53:38.299Z,26.60
2019-05-15T17:56:04.822Z,26.50
2019-05-15T17:58:31.084Z,26.50
2019-05-15T18:00:59.488Z,26.90
2019-05-15T18:03:28.575Z,28.10
2019-05-15T18:05:54.314Z,27.70
2019-05-15T18:08:21.025Z,27.80
2019-05-15T18:10:47.871Z,28.10
2019-05-15T18:13:15.035Z,28.80
2019-05-15T18:15:41.814Z,28.20
2019-05-15T18:18:09.449Z,28.00
2019-05-15T18:20:38.260Z,28.30
2019-05-15T18:23:04.195Z,28.30
2019-05-15T18:25:30.463Z,28.40
2019-05-15T18:27:59.137Z,29.00
2019-05-15T18:30:25.179Z,29.20
2019-05-15T18:32:51.862Z,29.40
2019-05-15T18:35:18.887Z,29.50
2019-05-15T18:37:48.152Z,29.70
2019-05-15T18:40:14.395Z,30.50
2019-05-15T18:42:40.827Z,30.00
2019-05-15T18:45:09.466Z,30.20
2019-05-15T18:47:35.869Z,29.60
2019-05-15T18:50:12.572Z,29.80
2019-05-15T18:52:38.141Z,29.90
2019-05-15T18:55:04.240Z,30.40
2019-05-15T18:57:31.013Z,30.30
2019-05-15T18:59:58.041Z,30.50
2019-05-15T19:02:24.694Z,30.90
2019-05-15T19:04:51.218Z,31.30
2019-05-15T19:07:18.223Z,31.50
2019-05-15T19:09:44.918Z,32.00
2019-05-15T19:12:11.575Z,33.60
2019-05-15T19:14:39.462Z,33.50
2019-05-15T19:17:08.111Z,33.20
2019-05-15T19:19:34.332Z,34.30
2019-05-15T19:22:00.949Z,33.10
2019-05-15T19:24:27.219Z,33.10
2019-05-15T19:26:53.447Z,33.80
2019-05-15T19:29:20.088Z,33.70
2019-05-15T19:31:47.230Z,34.20
2019-05-15T19:34:13.745Z,33.60
2019-05-15T19:36:40.402Z,33.70
2019-05-15T19:39:08.072Z,33.50
2019-05-15T19:41:34.902Z,34.00
2019-05-15T19:44:01.795Z,35.10
2019-05-15T19:46:28.419Z,35.40
2019-05-15T19:48:54.841Z,36.00
2019-05-15T19:51:21.458Z,35.30
2019-05-15T19:53:48.511Z,36.20
2019-05-15T19:56:14.746Z,36.20
2019-05-15T19:58:41.385Z,37.00
2019-05-15T20:01:08.233Z,36.80
2019-05-15T20:03:48.977Z,38.50
2019-05-15T20:06:03.312Z,39.00
2019-05-15T20:08:29.978Z,40.60
2019-05-15T20:10:59.131Z,41.30
2019-05-15T20:13:25.719Z,41.90
2019-05-15T20:15:52.336Z,42.10
2019-05-15T20:18:19.015Z,42.30
2019-05-15T20:20:47.408Z,42.40
2019-05-15T20:23:13.479Z,42.20
2019-05-15T20:25:39.775Z,42.20
2019-05-15T20:28:08.293Z,41.80
2019-05-15T20:30:34.449Z,42.30
2019-05-15T20:33:00.775Z,42.50
2019-05-15T20:35:28.293Z,40.80
2019-05-15T20:37:54.977Z,41.80
2019-05-15T20:40:21.634Z,40.30
2019-05-15T20:42:48.505Z,41.00
2019-05-15T20:45:17.841Z,41.50
2019-05-15T20:47:43.961Z,42.40
2019-05-15T20:50:10.889Z,41.30
2019-05-15T20:52:39.477Z,42.40
2019-05-15T20:55:08.074Z,42.70
2019-05-15T20:57:37.622Z,42.80
2019-05-15T21:00:08.001Z,43.20
2019-05-15T21:02:34.465Z,42.20
2019-05-15T21:05:02.159Z,43.20
2019-05-15T21:07:38.196Z,43.80
2019-05-15T21:09:58.764Z,43.90
2019-05-15T21:12:27.052Z,44.10
2019-05-15T21:14:53.515Z,43.40
2019-05-15T21:17:20.174Z,42.80
2019-05-15T21:19:48.821Z,44.30
2019-05-15T21:22:14.945Z,45.10
2019-05-15T21:24:41.614Z,45.50
2019-05-15T21:27:07.950Z,45.80
2019-05-15T21:29:34.463Z,46.10
2019-05-15T21:32:01.076Z,45.70
2019-05-15T21:34:37.315Z,45.80
2019-05-15T21:36:55.988Z,45.90
2019-05-15T21:39:22.636Z,46.20
2019-05-15T21:41:49.392Z,47.30
2019-05-15T21:44:15.932Z,47.30
2019-05-15T21:46:42.582Z,46.60
2019-05-15T21:49:09.196Z,46.10
2019-05-15T21:51:35.897Z,46.00
2019-05-15T21:54:02.663Z,45.70
2019-05-15T21:56:29.132Z,45.60
2019-05-15T21:58:55.752Z,45.30
2019-05-15T22:01:22.696Z,45.10
2019-05-15T22:03:49.112Z,45.30
2019-05-15T22:06:18.479Z,45.00
2019-05-15T22:08:44.839Z,46.20
2019-05-15T22:11:12.276Z,45.80
2019-05-15T22:13:39.485Z,45.60
2019-05-15T22:16:08.128Z,45.40
2019-05-15T22:18:34.694Z,46.40
2019-05-15T22:21:01.737Z,46.30
2019-05-15T22:23:28.316Z,46.80
2019-05-15T22:25:54.999Z,46.20
2019-05-15T22:28:21.567Z,46.60
2019-05-15T22:30:48.195Z,46.10
2019-05-15T22:33:14.852Z,48.40
2019-05-15T22:35:41.471Z,45.90
2019-05-15T22:38:08.865Z,46.10
2019-05-15T22:40:37.678Z,47.70
2019-05-15T22:43:03.836Z,47.80
2019-05-15T22:45:30.505Z,47.30
2019-05-15T22:47:58.510Z,47.90
2019-05-15T22:50:27.855Z,47.90
2019-05-15T22:52:53.662Z,48.30
2019-05-15T22:55:20.328Z,47.80
2019-05-15T22:57:48.195Z,48.50
2019-05-15T23:00:16.239Z,48.30
2019-05-15T23:02:42.711Z,49.20
2019-05-15T23:05:23.946Z,49.30
2019-05-15T23:07:38.958Z,49.10
2019-05-15T23:10:08.866Z,48.60
2019-05-15T23:12:35.020Z,48.40
2019-05-15T23:15:02.618Z,48.70
2019-05-15T23:17:29.091Z,48.70
2019-05-15T23:19:58.081Z,49.90
2019-05-15T23:22:24.019Z,50.50
2019-05-15T23:24:50.635Z,51.40
2019-05-15T23:27:18.170Z,52.00
2019-05-15T23:29:45.260Z,52.80
2019-05-15T23:32:11.778Z,52.70
2019-05-15T23:34:38.740Z,52.60
2019-05-15T23:37:05.143Z,52.90
2019-05-15T23:39:31.683Z,52.90
2019-05-15T23:41:58.530Z,53.10
2019-05-15T23:44:24.952Z,53.80
2019-05-15T23:46:51.828Z,54.00
2019-05-15T23:49:19.909Z,55.50
2019-05-15T23:51:48.678Z,55.50
2019-05-15T23:54:14.381Z,55.60
2019-05-15T23:56:41.014Z,55.90
2019-05-15T23:59:08.370Z,56.40
